Air Sicilia Virtual Airways - Route

Air Sicilia Virtual Airways - SIC014D

( IT ) LICC - 11:30
Catania-Fontanarossa Airport
CATANIA ( CTA )
plane_to ( IT ) LIEE - 12:45
Cagliari Elmas Airport
CAGLIARI ( CAG )

AIRPORT NEAR NAVIGATION AIDS

Type Name Frequency
NDB Catania 345 KHZ
VOR-DME Catania Fontanarossa 116250 KHZ
NDB Catania Fontanarossa 407 KHZ

METAR / TAF
LICC 160020Z 05005KT CAVOK 15/14 Q1015

RUNWAY INFORMATION

Runway Runway length Runway width Runway elevation Runway displaced threshold Runway heading
08 7989 148 37 312 84
26 7989 148 17 279 264

AIRPORT FREQUENCIES

Type Name Frequency
APP APP 119.25 MHZ
DIR DIRECTOR 120.8 MHZ
GND GND 129.725 MHZ
TWR TWR 118.7 MHZ

AIRPORT NEAR NAVIGATION AIDS

Type Name Frequency
VOR-DME Cagliari 113400 KHZ
NDB Cagliari 371 KHZ

METAR / TAF
LIEE 160020Z 06004KT CAVOK 09/08 Q1009

RUNWAY INFORMATION

Runway Runway length Runway width Runway elevation Runway displaced threshold Runway heading
14 9196 148 9 0 138
32 9196 148 4 0 318

AIRPORT FREQUENCIES

Type Name Frequency
APP CAGLIARI A 118.75 MHZ
GND Elmas GND 125.425 MHZ
MISC SAR 123.1 MHZ
TWR TWR 120.6 MHZ

Flightplan

LIBRO M871 NEVOT

Air Sicilia Virtual Airways Fleets

AVAILABLE AIRCRAFTS for route at this time in Catania-Fontanarossa Airport
A320 - Airbus A320
( UE ) Airbus

Aircraft in fleet: 1

B738 - Boeing 737-800 NGX
( US ) Boeing

Aircraft in fleet: 2

302.92 NM

Distance in nautical miles.

€ 65,00

Ticket price for this flight.

1.07 h.

Estimated flight time.



12-11-2018
Aerosoft Airport Rio de Janeiro International V2.0 XP

L'Aeroporto Internazionale di Rio de Janeiro-Galeão (IATA: GIG, ICAO: SBGL), costruito nel 1952 nel quartiere di Ilha do Governador ed intitolato al musicista Antônio Carlos Jobim, è il principale aeroporto internazio ....


15-10-2018
Aerosoft A320 Family professional

La gamma di aeromobili A320 è una delle più comuni nei cieli. Questi aerei di linea a doppio-getto a corto e medio raggio si sono dimostrati convenienti, affidabili e prontamente disponibili, rendendoli le opzioni migl ....


10-10-2018
Motore critico ( Critical Engine )

Il motore critico di un velivolo ad ala fissa multi-motore è il motore che, in caso di guasto, influirebbe negativamente sulle prestazioni o sulla capacità di manovra di un aereo. Sui velivoli ad elica, vi è un ....


04-10-2018
Aerosoft Dortmund XP

Scopri il centro della regione della Ruhr su XPlane 11 - lo scenario Dortmund XP è una ricostruzione completa della città di Dortmund per il simulatore di volo targato Laminar. Oltre all'intera area urbana di Dortmu ....


07-08-2018
Aerosoft Professional Flight Planner PFPX

PFPX - Professional Flight Planner X - è un nuovo ed innovativo strumento di pianificazione del volo sviluppato da piloti e dispatcher del mondo reale. È un'aggiunta preziosa e realistica alla tua esperienza di simulaz ....